CheckWX is a tool to help pilots better visualize weather data.  It is not intended as a substitute for an official pre-flight weather briefing.

14:27:40 UTC

LFRB METAR
Brest Bretagne Airport
Brest/Guipavas, France
Current

28 mins ago

LFRB 261400Z AUTO 21021KT 2500 -RA BR OVC004/// ///TCU 10/10 Q1010 TEMPO 22018G28KT 4000 RA
Observed
Jan-26 @ 14:00 UTC
Wind
  • 210° at 21 KTS
Visibility
2,500 meters
Flight Rules
LIFR
Conditions
Light Rain, Mist
Cloud Levels
  • Overcast at 400' AGL
Temperature
10°C / 50°F
Dewpoint
10°C / 50°F
Humidity
100%
Altimeter
29.82" Hg
Pressure
1009.92 hPa
Previous

58 mins ago

LFRB 261330Z AUTO 21022KT 6000 2600 -RA OVC004/// ///TCU 10/10 Q1010 TEMPO 22018G28KT 4000 RA
Observed
Jan-26 @ 13:30 UTC
Wind
  • 210° at 22 KTS
Visibility
6,000 meters
Flight Rules
LIFR
Conditions
Light Rain
Cloud Levels
  • Overcast at 400' AGL
Temperature
10°C / 50°F
Dewpoint
10°C / 50°F
Humidity
100%
Altimeter
29.82" Hg
Pressure
1009.92 hPa
Previous

1 hour ago

LFRB 261300Z AUTO 20020KT 4000 RA BR OVC005/// ///TCU 10/09 Q1010 TEMPO 22018G28KT
Observed
Jan-26 @ 13:00 UTC
Wind
  • 200° at 20 KTS
Visibility
4,000 meters
Flight Rules
IFR
Conditions
Rain, Mist
Cloud Levels
  • Overcast at 500' AGL
Temperature
10°C / 50°F
Dewpoint
C / 48°F
Humidity
94%
Altimeter
29.82" Hg
Pressure
1009.92 hPa